Time;durP1;ratioP1;P1;durP2;ratioP2;P2;SDS_P1;SDS_P2;PMS_P1;PMS_P2;Temp;Humidity;BMP_temperature;BMP_pressure;BME280_temperature;BME280_humidity;BME280_pressure;Samples;Min_cycle;Max_cycle;Signal;HPM_P1;HPM_P2
2021/03/19 00:01:43;;;;;;;1.42;1.10;;;;;;;;;;5074788;28;20029;-14
2021/03/19 00:04:09;;;;;;;4.25;1.55;;;;;;;;;;5074879;28;20024;-14
2021/03/19 00:06:34;;;;;;;5.35;2.50;;;;;;;;;;5074751;28;20032;-15
2021/03/19 00:09:01;;;;;;;5.50;2.83;;;;;;;;;;5074463;28;20141;-15
2021/03/19 00:11:27;;;;;;;2.45;1.63;;;;;;;;;;5074459;28;20032;-15
2021/03/19 00:13:52;;;;;;;2.38;1.63;;;;;;;;;;5074573;28;20032;-14
2021/03/19 00:16:17;;;;;;;5.25;1.80;;;;;;;;;;5074400;28;20044;-14
2021/03/19 00:18:43;;;;;;;2.92;1.70;;;;;;;;;;5074224;28;20052;-15
2021/03/19 00:21:08;;;;;;;2.97;1.55;;;;;;;;;;5074216;28;20420;-14
2021/03/19 00:23:33;;;;;;;4.20;1.65;;;;;;;;;;5073980;28;20520;-14
2021/03/19 00:26:00;;;;;;;2.60;1.38;;;;;;;;;;5074305;28;20028;-15
2021/03/19 00:28:25;;;;;;;2.22;1.35;;;;;;;;;;5074056;28;20452;-14
2021/03/19 00:30:50;;;;;;;2.88;1.40;;;;;;;;;;5073964;28;20027;-14
2021/03/19 00:33:16;;;;;;;4.95;2.22;;;;;;;;;;5074186;28;20059;-14
2021/03/19 00:35:42;;;;;;;2.80;1.60;;;;;;;;;;5073690;28;20459;-15
2021/03/19 00:38:08;;;;;;;2.40;1.40;;;;;;;;;;5073969;28;20013;-14
2021/03/19 00:40:33;;;;;;;2.13;1.38;;;;;;;;;;5073896;28;20036;-14
2021/03/19 00:42:59;;;;;;;3.13;1.98;;;;;;;;;;5072327;28;20017;-14
2021/03/19 00:45:25;;;;;;;1.45;1.33;;;;;;;;;;5073929;28;20044;-14
2021/03/19 00:47:51;;;;;;;2.10;1.63;;;;;;;;;;5073650;28;20017;-14
2021/03/19 00:50:18;;;;;;;2.03;1.30;;;;;;;;;;5073674;28;20033;-16
2021/03/19 00:52:44;;;;;;;2.22;1.48;;;;;;;;;;5073522;28;20056;-14
2021/03/19 00:55:11;;;;;;;3.58;1.45;;;;;;;;;;5072136;28;20557;-14
2021/03/19 00:57:36;;;;;;;2.38;1.70;;;;;;;;;;5073430;28;20051;-14
2021/03/19 01:00:03;;;;;;;2.15;1.70;;;;;;;;;;5073716;28;20117;-14
2021/03/19 01:02:28;;;;;;;2.03;1.33;;;;;;;;;;5072432;28;20067;-14
2021/03/19 01:04:54;;;;;;;2.85;1.33;;;;;;;;;;5073234;28;20056;-14
2021/03/19 01:07:19;;;;;;;3.00;1.52;;;;;;;;;;5073590;28;20113;-14
2021/03/19 01:09:44;;;;;;;3.95;1.85;;;;;;;;;;5072580;28;20532;-15
2021/03/19 01:12:10;;;;;;;2.60;1.73;;;;;;;;;;5073205;28;20494;-15
2021/03/19 01:14:36;;;;;;;2.45;1.73;;;;;;;;;;5073092;28;20090;-14
2021/03/19 01:17:01;;;;;;;3.40;1.40;;;;;;;;;;5073150;28;20023;-14
2021/03/19 01:19:26;;;;;;;4.47;2.00;;;;;;;;;;5073116;28;20078;-14
2021/03/19 01:21:52;;;;;;;2.25;1.33;;;;;;;;;;5073019;28;20067;-14
2021/03/19 01:24:17;;;;;;;2.17;1.52;;;;;;;;;;5073265;28;20470;-14
2021/03/19 01:26:42;;;;;;;2.95;1.67;;;;;;;;;;5072748;28;20094;-15
2021/03/19 01:29:08;;;;;;;2.53;1.20;;;;;;;;;;5073013;28;20040;-14
2021/03/19 01:31:33;;;;;;;1.95;1.45;;;;;;;;;;5073064;28;20013;-14
2021/03/19 01:33:59;;;;;;;2.92;1.55;;;;;;;;;;5072865;28;20052;-14
2021/03/19 01:36:24;;;;;;;2.88;1.55;;;;;;;;;;5072880;28;20024;-15
2021/03/19 01:38:50;;;;;;;5.15;1.27;;;;;;;;;;5072881;28;20039;-15
2021/03/19 01:41:15;;;;;;;2.50;1.10;;;;;;;;;;5072745;28;20023;-15
2021/03/19 01:43:52;;;;;;;3.08;1.52;;;;;;;;;;5072696;28;20028;-15
2021/03/19 01:46:37;;;;;;;3.58;2.13;;;;;;;;;;5072863;28;20111;-15
2021/03/19 01:49:21;;;;;;;7.28;1.85;;;;;;;;;;5072745;28;20044;-15
2021/03/19 01:52:06;;;;;;;5.20;2.08;;;;;;;;;;5072714;28;20028;-15
2021/03/19 01:54:49;;;;;;;10.35;2.70;;;;;;;;;;5072489;28;20375;-15
2021/03/19 01:57:33;;;;;;;7.25;1.88;;;;;;;;;;5072403;28;20033;-15
2021/03/19 02:00:18;;;;;;;8.57;2.80;;;;;;;;;;5072649;28;20032;-16
2021/03/19 02:03:01;;;;;;;6.30;2.50;;;;;;;;;;5072372;28;20032;-15
2021/03/19 02:05:45;;;;;;;9.50;2.53;;;;;;;;;;5072544;28;20097;-15
2021/03/19 02:08:29;;;;;;;6.93;2.30;;;;;;;;;;5072543;28;20028;-15
2021/03/19 02:11:13;;;;;;;4.53;2.55;;;;;;;;;;5072496;28;20391;-15
2021/03/19 02:13:57;;;;;;;6.25;2.47;;;;;;;;;;5072127;28;20119;-15
2021/03/19 02:16:41;;;;;;;3.72;2.15;;;;;;;;;;5072223;28;20021;-15
2021/03/19 02:19:25;;;;;;;3.80;1.23;;;;;;;;;;5054206;28;20094;-15
2021/03/19 02:22:09;;;;;;;2.63;1.77;;;;;;;;;;5071990;28;20040;-15
2021/03/19 02:24:53;;;;;;;2.88;1.48;;;;;;;;;;5072131;28;20083;-15
2021/03/19 02:27:37;;;;;;;3.47;1.65;;;;;;;;;;5072464;28;20104;-16
2021/03/19 02:30:21;;;;;;;4.50;1.60;;;;;;;;;;5070751;28;20458;-15
2021/03/19 02:32:46;;;;;;;2.25;1.30;;;;;;;;;;5071888;28;20588;-15
2021/03/19 02:35:17;;;;;;;2.22;1.55;;;;;;;;;;5071977;28;20078;-16
2021/03/19 02:37:42;;;;;;;2.22;1.55;;;;;;;;;;5072027;28;20074;-15
2021/03/19 02:40:09;;;;;;;1.95;1.30;;;;;;;;;;5072274;28;20017;-15
2021/03/19 02:42:35;;;;;;;3.45;1.88;;;;;;;;;;5071931;28;20697;-16
2021/03/19 02:45:00;;;;;;;2.28;1.40;;;;;;;;;;5071827;28;20028;-15
2021/03/19 02:47:27;;;;;;;2.53;1.48;;;;;;;;;;5071913;28;20074;-15
2021/03/19 02:49:52;;;;;;;3.55;2.00;;;;;;;;;;5072065;28;20086;-16
2021/03/19 02:52:19;;;;;;;2.65;1.52;;;;;;;;;;5070548;28;20044;-15
2021/03/19 02:54:44;;;;;;;4.35;2.22;;;;;;;;;;5071808;28;20055;-15
2021/03/19 02:57:10;;;;;;;2.22;1.85;;;;;;;;;;5071833;28;20495;-16
2021/03/19 02:59:35;;;;;;;2.45;1.75;;;;;;;;;;5072085;28;20027;-15
2021/03/19 03:02:00;;;;;;;2.00;1.73;;;;;;;;;;5072039;28;20060;-15
2021/03/19 03:04:26;;;;;;;2.72;2.00;;;;;;;;;;5071590;28;20024;-15
2021/03/19 03:06:53;;;;;;;3.15;1.90;;;;;;;;;;5072032;28;20032;-15
2021/03/19 03:09:25;;;;;;;3.20;1.50;;;;;;;;;;5071737;28;20466;-15
2021/03/19 03:11:50;;;;;;;4.90;1.75;;;;;;;;;;5071760;28;20033;-15
2021/03/19 03:14:19;;;;;;;3.08;1.58;;;;;;;;;;5071644;28;20489;-14
2021/03/19 03:16:45;;;;;;;3.17;1.85;;;;;;;;;;5071642;28;20028;-15
2021/03/19 03:19:12;;;;;;;4.22;1.60;;;;;;;;;;5071668;28;20021;-16
2021/03/19 03:21:38;;;;;;;5.50;2.08;;;;;;;;;;5070798;28;20036;-14
2021/03/19 03:24:04;;;;;;;3.65;1.50;;;;;;;;;;5071204;28;20090;-14
2021/03/19 03:26:29;;;;;;;2.65;1.80;;;;;;;;;;5071223;28;20040;-15
2021/03/19 03:28:56;;;;;;;4.97;1.33;;;;;;;;;;5071515;28;20361;-14
2021/03/19 03:31:21;;;;;;;2.20;1.60;;;;;;;;;;5071572;28;20029;-15
2021/03/19 03:33:46;;;;;;;3.17;2.00;;;;;;;;;;5074746;28;20132;-14
2021/03/19 03:36:12;;;;;;;4.07;1.90;;;;;;;;;;5075167;28;20032;-14
2021/03/19 03:38:37;;;;;;;2.97;1.52;;;;;;;;;;5069299;28;20089;-14
2021/03/19 03:41:05;;;;;;;2.58;1.70;;;;;;;;;;5073451;28;20028;-13
2021/03/19 03:43:31;;;;;;;3.83;1.60;;;;;;;;;;5074248;28;20544;-14
2021/03/19 03:45:57;;;;;;;6.03;2.25;;;;;;;;;;5073497;28;20133;-14
2021/03/19 03:48:23;;;;;;;2.55;1.80;;;;;;;;;;5075141;28;20035;-14
2021/03/19 03:50:49;;;;;;;2.78;1.77;;;;;;;;;;5075120;28;20104;-14
2021/03/19 03:53:15;;;;;;;2.20;1.33;;;;;;;;;;5074680;28;20673;-20
2021/03/19 03:55:42;;;;;;;4.53;1.60;;;;;;;;;;5074742;28;20024;-15
2021/03/19 03:58:08;;;;;;;4.10;1.92;;;;;;;;;;5074535;28;20020;-15
2021/03/19 04:00:34;;;;;;;2.63;1.38;;;;;;;;;;5074684;28;20467;-14
2021/03/19 04:03:00;;;;;;;2.55;1.50;;;;;;;;;;5074926;28;20025;-15
2021/03/19 04:05:28;;;;;;;3.45;1.55;;;;;;;;;;5074794;28;20107;-14
2021/03/19 04:07:54;;;;;;;3.90;2.22;;;;;;;;;;5074696;28;20024;-14
2021/03/19 04:10:19;;;;;;;3.22;1.70;;;;;;;;;;5074443;28;20498;-14
2021/03/19 04:12:45;;;;;;;3.60;1.80;;;;;;;;;;5074635;28;20029;-14
2021/03/19 04:15:11;;;;;;;2.80;1.75;;;;;;;;;;5074560;28;20153;-14
2021/03/19 04:17:36;;;;;;;2.55;2.35;;;;;;;;;;5074286;28;20024;-14
2021/03/19 04:20:04;;;;;;;2.17;1.60;;;;;;;;;;5074302;28;20021;-15
2021/03/19 04:22:29;;;;;;;2.53;1.50;;;;;;;;;;5074212;28;20755;-14
2021/03/19 04:24:55;;;;;;;4.72;1.92;;;;;;;;;;5074096;28;20055;-15
2021/03/19 04:27:23;;;;;;;2.03;1.35;;;;;;;;;;5072971;28;20029;-14
2021/03/19 04:29:49;;;;;;;3.05;1.65;;;;;;;;;;5074005;28;20107;-14
2021/03/19 04:32:15;;;;;;;5.03;2.25;;;;;;;;;;5073981;28;20103;-14
2021/03/19 04:34:40;;;;;;;2.92;1.70;;;;;;;;;;5074103;28;20024;-14
2021/03/19 04:37:07;;;;;;;4.60;1.90;;;;;;;;;;5073828;28;20601;-14
2021/03/19 04:39:33;;;;;;;2.17;1.42;;;;;;;;;;5073947;28;20035;-15
2021/03/19 04:42:00;;;;;;;2.90;1.42;;;;;;;;;;5072818;28;20066;-15
2021/03/19 04:44:28;;;;;;;2.85;2.25;;;;;;;;;;5072292;28;20532;-14
2021/03/19 04:46:53;;;;;;;3.60;1.70;;;;;;;;;;5073936;28;20028;-15
2021/03/19 04:49:19;;;;;;;5.07;2.10;;;;;;;;;;5074090;28;20032;-15
2021/03/19 04:51:44;;;;;;;2.72;1.63;;;;;;;;;;5073935;28;20013;-14
2021/03/19 04:54:10;;;;;;;2.35;1.80;;;;;;;;;;5073750;28;20425;-15
2021/03/19 04:56:35;;;;;;;3.20;1.75;;;;;;;;;;5073653;28;20067;-14
2021/03/19 04:59:01;;;;;;;6.05;2.45;;;;;;;;;;5073409;28;20032;-14
2021/03/19 05:01:26;;;;;;;4.80;2.20;;;;;;;;;;5073777;28;20065;-14
2021/03/19 05:03:51;;;;;;;5.13;2.45;;;;;;;;;;5073634;28;20475;-14
2021/03/19 05:06:17;;;;;;;4.72;2.35;;;;;;;;;;5073581;28;20013;-15
2021/03/19 05:08:43;;;;;;;2.75;1.60;;;;;;;;;;5073397;28;20032;-15
2021/03/19 05:11:09;;;;;;;2.13;1.65;;;;;;;;;;5073260;28;20071;-14
2021/03/19 05:13:34;;;;;;;3.83;1.80;;;;;;;;;;5073248;28;20487;-14
2021/03/19 05:15:59;;;;;;;4.00;2.22;;;;;;;;;;5073148;28;20027;-14
2021/03/19 05:18:25;;;;;;;4.88;1.95;;;;;;;;;;5073321;28;20067;-14
2021/03/19 05:20:50;;;;;;;4.78;2.13;;;;;;;;;;5072976;28;20486;-14
2021/03/19 05:23:21;;;;;;;6.25;2.67;;;;;;;;;;5072832;28;20059;-15
2021/03/19 05:25:47;;;;;;;4.57;2.08;;;;;;;;;;5073200;28;20120;-14
2021/03/19 05:28:12;;;;;;;6.60;3.10;;;;;;;;;;5073280;28;20429;-14
2021/03/19 05:30:38;;;;;;;2.85;1.90;;;;;;;;;;5072973;28;20387;-14
2021/03/19 05:33:03;;;;;;;4.35;2.00;;;;;;;;;;5072950;28;20082;-14
2021/03/19 05:35:29;;;;;;;6.82;2.00;;;;;;;;;;5072770;28;20036;-14
2021/03/19 05:37:55;;;;;;;4.72;2.35;;;;;;;;;;5072977;28;20024;-14
2021/03/19 05:40:31;;;;;;;6.10;2.17;;;;;;;;;;5072769;28;20024;-15
2021/03/19 05:43:14;;;;;;;5.60;2.50;;;;;;;;;;5072620;28;20382;-15
2021/03/19 05:45:40;;;;;;;;;;;;;;;;;;5073405;28;20098;-15
2021/03/19 05:48:05;;;;;;;5.75;2.42;;;;;;;;;;5072400;28;19904;-15
2021/03/19 05:50:32;;;;;;;2.85;1.90;;;;;;;;;;5072880;28;20467;-15
2021/03/19 05:53:04;;;;;;;6.10;2.75;;;;;;;;;;5072432;28;20028;-15
2021/03/19 05:55:35;;;;;;;5.65;2.75;;;;;;;;;;5072250;28;20387;-15
2021/03/19 05:58:01;;;;;;;6.80;2.42;;;;;;;;;;5072697;28;20059;-15
2021/03/19 06:00:27;;;;;;;7.97;3.75;;;;;;;;;;5072490;28;20482;-15
2021/03/19 06:02:52;;;;;;;8.10;3.25;;;;;;;;;;5072321;28;20051;-15
2021/03/19 06:05:28;;;;;;;10.75;3.85;;;;;;;;;;5072417;28;20456;-14
2021/03/19 06:07:54;;;;;;;11.15;4.78;;;;;;;;;;5072268;28;20081;-15
2021/03/19 06:10:26;;;;;;;14.07;5.57;;;;;;;;;;5070988;28;20025;-14
2021/03/19 06:12:53;;;;;;;12.07;5.53;;;;;;;;;;5070918;28;20063;-14
2021/03/19 06:15:23;;;;;;;10.13;3.88;;;;;;;;;;5072444;28;20013;-16
2021/03/19 06:17:48;;;;;;;17.85;4.15;;;;;;;;;;5072560;28;20028;-16
2021/03/19 06:20:15;;;;;;;8.50;3.38;;;;;;;;;;5071342;28;20362;-16
2021/03/19 06:22:46;;;;;;;10.77;3.65;;;;;;;;;;5071912;28;20041;-16
2021/03/19 06:25:20;;;;;;;11.52;4.70;;;;;;;;;;5070918;28;20524;-15
2021/03/19 06:27:48;;;;;;;8.52;3.78;;;;;;;;;;5072439;28;20028;-16
2021/03/19 06:30:22;;;;;;;11.00;4.40;;;;;;;;;;5072179;28;20447;-17
2021/03/19 06:32:59;;;;;;;7.32;2.92;;;;;;;;;;5072314;28;20041;-16
2021/03/19 06:35:31;;;;;;;12.48;3.45;;;;;;;;;;5072066;28;20047;-13
2021/03/19 06:38:16;;;;;;;7.03;3.30;;;;;;;;;;5055110;28;20024;-14
2021/03/19 06:40:42;;;;;;;11.73;4.10;;;;;;;;;;5072000;28;20060;-16
2021/03/19 06:43:17;;;;;;;10.70;3.72;;;;;;;;;;5072234;28;20620;-14
2021/03/19 06:45:43;;;;;;;7.90;3.90;;;;;;;;;;5072023;28;20024;-15
2021/03/19 06:48:29;;;;;;;8.25;4.03;;;;;;;;;;5071913;28;20455;-13
2021/03/19 06:50:55;;;;;;;8.07;3.55;;;;;;;;;;5070304;28;20161;-13
2021/03/19 06:53:20;;;;;;;9.00;3.85;;;;;;;;;;5071437;28;20121;-13
2021/03/19 06:55:47;;;;;;;15.25;5.90;;;;;;;;;;5070778;28;20547;-14
2021/03/19 06:58:12;;;;;;;8.75;4.40;;;;;;;;;;5070217;28;20020;-13
2021/03/19 07:00:47;;;;;;;13.23;5.95;;;;;;;;;;5070551;28;20044;-14
2021/03/19 07:03:24;;;;;;;18.60;5.90;;;;;;;;;;5071712;28;20111;-15
2021/03/19 07:05:58;;;;;;;11.32;5.38;;;;;;;;;;5071813;28;20035;-14
2021/03/19 07:08:50;;;;;;;9.15;4.90;;;;;;;;;;5073756;28;20031;-14
2021/03/19 07:11:21;;;;;;;14.77;5.97;;;;;;;;;;5052061;28;20040;-14
2021/03/19 07:13:52;;;;;;;8.77;3.70;;;;;;;;;;5075105;28;20472;-13
2021/03/19 07:16:36;;;;;;;9.63;4.93;;;;;;;;;;5075609;28;20501;-14
2021/03/19 07:19:04;;;;;;;8.70;5.32;;;;;;;;;;5075428;28;20028;-13
2021/03/19 07:21:38;;;;;;;8.95;4.25;;;;;;;;;;5075581;28;20055;-13
2021/03/19 07:24:10;;;;;;;7.68;3.92;;;;;;;;;;5075301;28;20033;-14
2021/03/19 07:26:38;;;;;;;5.07;2.90;;;;;;;;;;5073890;28;20029;-14
2021/03/19 07:29:19;;;;;;;8.90;3.78;;;;;;;;;;5075204;28;20044;-14
2021/03/19 07:31:44;;;;;;;8.15;3.40;;;;;;;;;;5075392;28;20086;-14
2021/03/19 07:34:15;;;;;;;9.05;2.70;;;;;;;;;;5075117;28;20036;-14
2021/03/19 07:36:44;;;;;;;5.78;2.33;;;;;;;;;;5075112;28;20054;-15
2021/03/19 07:39:28;;;;;;;4.45;1.88;;;;;;;;;;5073844;28;20055;-14
2021/03/19 07:42:12;;;;;;;3.83;2.63;;;;;;;;;;5056823;28;20031;-15
2021/03/19 07:44:41;;;;;;;2.83;1.90;;;;;;;;;;5074972;28;20028;-13
2021/03/19 07:47:25;;;;;;;2.72;1.98;;;;;;;;;;5075083;28;20024;-13
2021/03/19 07:50:09;;;;;;;3.47;2.42;;;;;;;;;;5075098;28;20039;-14
2021/03/19 07:52:43;;;;;;;3.28;2.13;;;;;;;;;;5074785;28;20037;-14
2021/03/19 07:55:16;;;;;;;3.80;2.47;;;;;;;;;;5074673;28;20021;-14
2021/03/19 07:57:44;;;;;;;3.47;2.15;;;;;;;;;;5074792;28;20025;-15
2021/03/19 08:00:18;;;;;;;2.15;1.80;;;;;;;;;;5073284;28;20514;-14
2021/03/19 08:02:50;;;;;;;3.45;2.95;;;;;;;;;;5073336;28;20108;-14
2021/03/19 08:05:32;;;;;;;3.03;2.28;;;;;;;;;;5074569;28;20020;-15
2021/03/19 08:08:12;;;;;;;3.00;2.33;;;;;;;;;;5074840;28;20032;-13
2021/03/19 08:10:50;;;;;;;4.03;2.15;;;;;;;;;;5073203;28;20581;-14
2021/03/19 08:13:24;;;;;;;5.03;2.90;;;;;;;;;;5074568;28;20391;-14
2021/03/19 08:15:52;;;;;;;3.75;2.30;;;;;;;;;;5074502;28;20036;-14
2021/03/19 08:18:23;;;;;;;3.63;2.35;;;;;;;;;;5074302;28;20021;-14
2021/03/19 08:20:48;;;;;;;3.28;2.15;;;;;;;;;;5074364;28;20036;-14
2021/03/19 08:23:13;;;;;;;4.10;2.33;;;;;;;;;;5073996;28;20063;-14
2021/03/19 08:25:46;;;;;;;3.92;2.53;;;;;;;;;;5074215;28;20033;-15
2021/03/19 08:28:12;;;;;;;;;;;;;;;;;;5074552;28;20028;-14
2021/03/19 08:30:58;;;;;;;2.72;2.45;;;;;;;;;;5074394;28;19912;-14
2021/03/19 08:33:32;;;;;;;4.07;2.38;;;;;;;;;;5073913;28;20101;-17
2021/03/19 08:36:17;;;;;;;2.03;1.33;;;;;;;;;;5074226;28;20025;-14
2021/03/19 08:38:44;;;;;;;3.53;2.17;;;;;;;;;;5073946;28;20379;-14
2021/03/19 08:41:14;;;;;;;3.03;2.47;;;;;;;;;;5072569;28;20029;-14
2021/03/19 08:43:47;;;;;;;2.47;1.83;;;;;;;;;;5074111;28;20028;-14
2021/03/19 08:46:14;;;;;;;5.55;2.30;;;;;;;;;;5073724;28;20024;-14
2021/03/19 08:49:08;;;;;;;4.18;2.40;;;;;;;;;;5073882;28;20054;-14
2021/03/19 08:51:34;;;;;;;2.80;2.13;;;;;;;;;;5060210;28;20037;-14
2021/03/19 08:54:11;;;;;;;3.15;2.03;;;;;;;;;;5073734;28;20117;-14
2021/03/19 08:56:38;;;;;;;2.38;1.90;;;;;;;;;;5073629;28;20028;-15
2021/03/19 08:59:03;;;;;;;3.67;2.20;;;;;;;;;;4369958;28;10000543;-17
2021/03/19 09:01:47;;;;;;;3.63;2.03;;;;;;;;;;5070056;28;20025;-13
2021/03/19 09:04:15;;;;;;;2.00;1.75;;;;;;;;;;5069811;28;20028;-15
2021/03/19 09:07:00;;;;;;;3.47;2.22;;;;;;;;;;5069931;28;20424;-16
2021/03/19 09:09:35;;;;;;;5.07;2.08;;;;;;;;;;5069985;28;20103;-16
2021/03/19 09:12:04;;;;;;;2.35;2.00;;;;;;;;;;5068832;28;20064;-16
2021/03/19 09:14:37;;;;;;;2.80;1.85;;;;;;;;;;5068801;28;20064;-16
2021/03/19 09:17:02;;;;;;;2.33;1.42;;;;;;;;;;5069800;28;20434;-16
2021/03/19 09:19:51;;;;;;;4.47;2.53;;;;;;;;;;5070277;28;20025;-16
2021/03/19 09:22:20;;;;;;;2.67;1.80;;;;;;;;;;5069641;28;20045;-14
2021/03/19 09:25:05;;;;;;;1.80;1.17;;;;;;;;;;5068262;28;20550;-13
2021/03/19 09:27:31;;;;;;;2.10;1.33;;;;;;;;;;5069657;28;20111;-15
2021/03/19 09:30:15;;;;;;;1.23;0.55;;;;;;;;;;5068998;28;20024;-15
2021/03/19 09:32:42;;;;;;;2.00;1.80;;;;;;;;;;5069656;28;20039;-15
2021/03/19 09:35:13;;;;;;;1.55;1.20;;;;;;;;;;5069390;28;20089;-15
2021/03/19 09:37:39;;;;;;;2.63;1.80;;;;;;;;;;5069696;28;20434;-15
2021/03/19 09:40:07;;;;;;;2.85;1.40;;;;;;;;;;5069383;28;20024;-15
2021/03/19 09:42:33;;;;;;;2.35;1.60;;;;;;;;;;5069756;28;20035;-15
2021/03/19 09:44:58;;;;;;;3.20;1.55;;;;;;;;;;5069901;28;20016;-15
2021/03/19 09:47:26;;;;;;;2.05;1.50;;;;;;;;;;5069105;28;20521;-15
2021/03/19 09:50:03;;;;;;;2.35;1.45;;;;;;;;;;5069420;28;20471;-15
2021/03/19 09:52:29;;;;;;;2.20;1.38;;;;;;;;;;5069170;28;20150;-14
2021/03/19 09:54:54;;;;;;;3.08;1.33;;;;;;;;;;5068758;28;20503;-14
2021/03/19 09:57:19;;;;;;;2.60;1.15;;;;;;;;;;5067793;28;20028;-14
2021/03/19 09:59:45;;;;;;;2.05;1.35;;;;;;;;;;5079999;28;20020;-13
2021/03/19 10:02:26;;;;;;;1.27;0.90;;;;;;;;;;5089329;28;20032;-14
2021/03/19 10:04:52;;;;;;;2.00;1.13;;;;;;;;;;5089492;28;20050;-13
2021/03/19 10:07:20;;;;;;;3.83;1.10;;;;;;;;;;5088230;28;20019;-14
2021/03/19 10:09:47;;;;;;;2.50;1.30;;;;;;;;;;5089405;28;20032;-13
2021/03/19 10:12:17;;;;;;;1.13;0.98;;;;;;;;;;5088285;28;20082;-13
2021/03/19 10:14:45;;;;;;;2.67;1.15;;;;;;;;;;5088938;28;20036;-14
2021/03/19 10:17:27;;;;;;;1.88;1.40;;;;;;;;;;5089251;28;20027;-13
2021/03/19 10:19:57;;;;;;;2.03;1.38;;;;;;;;;;5089446;28;20047;-14
2021/03/19 10:22:30;;;;;;;1.48;0.98;;;;;;;;;;5088479;28;20040;-14
2021/03/19 10:24:55;;;;;;;2.17;1.08;;;;;;;;;;5089322;28;20039;-14
2021/03/19 10:27:21;;;;;;;2.55;1.10;;;;;;;;;;5089274;28;20040;-14
2021/03/19 10:29:48;;;;;;;1.45;1.10;;;;;;;;;;5089187;28;20028;-14
2021/03/19 10:32:15;;;;;;;2.05;1.25;;;;;;;;;;5088870;28;20193;-14
2021/03/19 10:34:53;;;;;;;1.85;1.10;;;;;;;;;;5088029;28;20505;-15
2021/03/19 10:37:19;;;;;;;1.27;0.88;;;;;;;;;;5088685;28;20115;-15
2021/03/19 10:39:47;;;;;;;1.30;1.02;;;;;;;;;;5088589;28;20099;-15
2021/03/19 10:42:15;;;;;;;2.78;1.70;;;;;;;;;;5091479;28;20616;-15
2021/03/19 10:44:45;;;;;;;1.85;1.17;;;;;;;;;;5093000;28;20024;-15
2021/03/19 10:47:19;;;;;;;1.00;0.55;;;;;;;;;;5091213;28;20035;-13
2021/03/19 10:49:45;;;;;;;1.33;0.90;;;;;;;;;;5093450;28;20128;-14
2021/03/19 10:52:17;;;;;;;0.95;0.80;;;;;;;;;;5092809;28;20115;-13
2021/03/19 10:54:44;;;;;;;1.60;0.80;;;;;;;;;;5092851;28;20043;-13
2021/03/19 10:57:34;;;;;;;2.08;1.17;;;;;;;;;;5092677;28;20505;-13
2021/03/19 11:00:00;;;;;;;1.02;0.90;;;;;;;;;;5078229;28;20444;-14
2021/03/19 11:02:29;;;;;;;1.40;0.98;;;;;;;;;;5071232;28;20052;-14
2021/03/19 11:04:55;;;;;;;1.63;0.93;;;;;;;;;;5078605;28;20059;-13
2021/03/19 11:07:26;;;;;;;3.00;1.70;;;;;;;;;;5093063;28;20048;-14
2021/03/19 11:10:04;;;;;;;1.52;0.90;;;;;;;;;;5090864;28;20028;-14
2021/03/19 11:12:59;;;;;;;2.90;1.67;;;;;;;;;;5092659;28;20178;-14
2021/03/19 11:15:24;;;;;;;1.95;1.35;;;;;;;;;;5079101;28;20040;-14
2021/03/19 11:18:09;;;;;;;1.48;0.85;;;;;;;;;;5092518;28;20565;-14
2021/03/19 11:20:36;;;;;;;1.45;0.90;;;;;;;;;;5092328;28;20028;-13
2021/03/19 11:23:01;;;;;;;1.45;1.00;;;;;;;;;;5091567;28;20070;-14
2021/03/19 11:25:48;;;;;;;2.58;2.38;;;;;;;;;;5092541;28;20530;-14
2021/03/19 11:28:20;;;;;;;1.52;1.10;;;;;;;;;;5091979;28;20027;-14
2021/03/19 11:30:46;;;;;;;1.02;0.77;;;;;;;;;;5092570;28;20043;-14
2021/03/19 11:33:14;;;;;;;4.35;1.23;;;;;;;;;;5092293;28;20040;-14
2021/03/19 11:35:39;;;;;;;1.58;1.05;;;;;;;;;;5091682;28;20482;-14
2021/03/19 11:38:30;;;;;;;1.02;0.90;;;;;;;;;;5090350;28;20016;-15
2021/03/19 11:40:55;;;;;;;3.65;1.35;;;;;;;;;;5095267;28;20036;-15
2021/03/19 11:43:20;;;;;;;1.42;1.10;;;;;;;;;;5095308;28;20066;-14
2021/03/19 11:45:46;;;;;;;0.98;0.85;;;;;;;;;;5095336;28;20118;-15
2021/03/19 11:48:14;;;;;;;2.88;0.65;;;;;;;;;;5095345;28;20068;-14
2021/03/19 11:50:41;;;;;;;2.97;1.10;;;;;;;;;;5093899;28;20043;-15
2021/03/19 11:53:08;;;;;;;1.45;0.82;;;;;;;;;;5075990;28;20487;-14
2021/03/19 11:55:36;;;;;;;0.85;0.50;;;;;;;;;;5095326;28;20039;-15
2021/03/19 11:58:02;;;;;;;1.17;0.75;;;;;;;;;;5094998;28;20027;-14
2021/03/19 12:00:28;;;;;;;0.70;0.57;;;;;;;;;;5095035;28;20028;-14
2021/03/19 12:02:56;;;;;;;2.75;1.02;;;;;;;;;;5094899;28;20067;-15
2021/03/19 12:05:22;;;;;;;1.00;0.80;;;;;;;;;;5095173;28;20028;-14
2021/03/19 12:07:48;;;;;;;1.38;1.05;;;;;;;;;;5094979;28;20024;-14
2021/03/19 12:10:15;;;;;;;1.92;1.27;;;;;;;;;;5093411;28;20386;-15
2021/03/19 12:12:40;;;;;;;3.22;1.08;;;;;;;;;;5094917;28;20036;-14
2021/03/19 12:15:07;;;;;;;1.30;1.10;;;;;;;;;;5094625;28;20567;-14
2021/03/19 12:17:32;;;;;;;0.95;0.93;;;;;;;;;;5094601;28;20103;-13
2021/03/19 12:19:58;;;;;;;1.40;1.17;;;;;;;;;;5093358;28;20476;-15
2021/03/19 12:22:23;;;;;;;1.70;1.25;;;;;;;;;;5094395;28;20402;-14
2021/03/19 12:24:49;;;;;;;2.35;1.08;;;;;;;;;;5094413;28;20111;-14
2021/03/19 12:27:15;;;;;;;1.17;0.70;;;;;;;;;;5094372;28;20119;-14
2021/03/19 12:29:40;;;;;;;1.38;0.98;;;;;;;;;;5094740;28;20032;-14
2021/03/19 12:32:06;;;;;;;3.95;1.17;;;;;;;;;;5094511;28;20460;-14
2021/03/19 12:34:32;;;;;;;0.55;0.55;;;;;;;;;;5094295;28;20032;-18
2021/03/19 12:36:57;;;;;;;2.25;1.33;;;;;;;;;;5094206;28;20095;-15
2021/03/19 12:39:23;;;;;;;1.60;0.75;;;;;;;;;;5094499;28;20352;-16
2021/03/19 12:41:49;;;;;;;1.67;1.00;;;;;;;;;;5094190;28;20070;-15
2021/03/19 12:44:15;;;;;;;1.08;0.90;;;;;;;;;;5092095;28;20039;-15
2021/03/19 12:46:41;;;;;;;0.93;0.60;;;;;;;;;;5091216;28;20085;-15
2021/03/19 12:49:07;;;;;;;0.88;0.88;;;;;;;;;;5072504;28;20036;-15
2021/03/19 12:51:33;;;;;;;3.58;1.00;;;;;;;;;;5090773;28;20012;-17
2021/03/19 12:54:00;;;;;;;0.38;0.38;;;;;;;;;;5090678;28;20036;-16
2021/03/19 12:56:26;;;;;;;1.27;0.82;;;;;;;;;;5090119;28;20054;-25
2021/03/19 12:58:52;;;;;;;2.03;1.05;;;;;;;;;;5090787;28;20055;-17
2021/03/19 13:01:21;;;;;;;1.75;1.25;;;;;;;;;;5090841;28;20784;-13
2021/03/19 13:03:47;;;;;;;1.40;0.70;;;;;;;;;;5090229;28;20039;-14
2021/03/19 13:06:12;;;;;;;1.75;1.20;;;;;;;;;;4719097;28;10000555;-14
2021/03/19 13:08:38;;;;;;;2.58;1.08;;;;;;;;;;5070410;28;20079;-15
2021/03/19 13:11:03;;;;;;;0.38;0.38;;;;;;;;;;5070540;28;20059;-14
2021/03/19 13:13:29;;;;;;;1.30;0.90;;;;;;;;;;5069796;28;20471;-15
2021/03/19 13:15:55;;;;;;;1.70;1.05;;;;;;;;;;5070033;28;20171;-15
2021/03/19 13:18:20;;;;;;;1.00;0.88;;;;;;;;;;5069630;28;20095;-15
2021/03/19 13:20:46;;;;;;;1.30;0.80;;;;;;;;;;5067955;28;20023;-14
2021/03/19 13:23:12;;;;;;;1.92;1.20;;;;;;;;;;5069434;28;20051;-14
2021/03/19 13:25:40;;;;;;;2.17;1.23;;;;;;;;;;5068389;28;20158;-15
2021/03/19 13:28:06;;;;;;;2.47;1.02;;;;;;;;;;5069773;28;20063;-14
2021/03/19 13:30:32;;;;;;;1.73;1.05;;;;;;;;;;5069742;28;20067;-14
2021/03/19 13:33:00;;;;;;;3.20;1.00;;;;;;;;;;5069266;28;20040;-15
2021/03/19 13:35:31;;;;;;;1.00;0.82;;;;;;;;;;5068327;28;20040;-14
2021/03/19 13:37:56;;;;;;;1.98;1.13;;;;;;;;;;5069758;28;20107;-14
2021/03/19 13:40:23;;;;;;;1.25;0.70;;;;;;;;;;5068063;28;20445;-14
2021/03/19 13:42:49;;;;;;;1.10;1.00;;;;;;;;;;5069200;28;20032;-14
2021/03/19 13:45:15;;;;;;;1.35;0.88;;;;;;;;;;5069196;28;20525;-14
2021/03/19 13:47:40;;;;;;;1.27;1.00;;;;;;;;;;5069629;28;20036;-14
2021/03/19 13:50:06;;;;;;;1.38;0.82;;;;;;;;;;5069603;28;20017;-15
2021/03/19 13:52:32;;;;;;;0.90;0.70;;;;;;;;;;5069370;28;20032;-14
2021/03/19 13:54:58;;;;;;;0.50;0.50;;;;;;;;;;5070566;28;20029;-16
2021/03/19 13:57:26;;;;;;;3.42;0.85;;;;;;;;;;5068200;28;20033;-15
2021/03/19 13:59:51;;;;;;;1.65;0.80;;;;;;;;;;5067680;28;20028;-21
2021/03/19 14:02:17;;;;;;;1.38;0.77;;;;;;;;;;5051190;28;20125;-15
2021/03/19 14:04:42;;;;;;;1.33;1.10;;;;;;;;;;5075663;28;20474;-15
2021/03/19 14:07:08;;;;;;;1.98;0.90;;;;;;;;;;5070968;28;20028;-14
2021/03/19 14:09:33;;;;;;;2.20;1.08;;;;;;;;;;5088750;28;20031;-17
2021/03/19 14:11:58;;;;;;;1.88;1.10;;;;;;;;;;5089347;28;20051;-14
2021/03/19 14:14:24;;;;;;;1.30;0.77;;;;;;;;;;5087642;28;20084;-15
2021/03/19 14:16:50;;;;;;;1.10;0.80;;;;;;;;;;5089394;28;20071;-15
2021/03/19 14:19:16;;;;;;;1.50;0.80;;;;;;;;;;5089427;28;20111;-15
2021/03/19 14:21:42;;;;;;;1.33;0.93;;;;;;;;;;5088403;28;20092;-14
2021/03/19 14:24:08;;;;;;;1.23;0.93;;;;;;;;;;5089021;28;20559;-14
2021/03/19 14:26:34;;;;;;;1.83;1.00;;;;;;;;;;5089127;28;20047;-14
2021/03/19 14:28:59;;;;;;;1.08;0.70;;;;;;;;;;5089122;28;20506;-14
2021/03/19 14:31:27;;;;;;;2.38;1.30;;;;;;;;;;5089005;28;20039;-15
2021/03/19 14:33:53;;;;;;;1.48;0.68;;;;;;;;;;5070437;28;20039;-14
2021/03/19 14:36:19;;;;;;;1.35;0.80;;;;;;;;;;5089083;28;20020;-14
2021/03/19 14:38:44;;;;;;;3.35;0.88;;;;;;;;;;5089119;28;20034;-14
2021/03/19 14:41:10;;;;;;;1.42;0.95;;;;;;;;;;5089164;28;20032;-14
2021/03/19 14:43:35;;;;;;;3.30;1.05;;;;;;;;;;5089016;28;20020;-14
2021/03/19 14:46:01;;;;;;;2.58;0.80;;;;;;;;;;5088483;28;20064;-15
2021/03/19 14:48:27;;;;;;;1.17;1.08;;;;;;;;;;5088566;28;20020;-15
2021/03/19 14:50:54;;;;;;;1.70;1.00;;;;;;;;;;5088636;28;20028;-14
2021/03/19 14:53:19;;;;;;;2.13;1.27;;;;;;;;;;5088214;28;20096;-15
2021/03/19 14:55:45;;;;;;;1.10;0.70;;;;;;;;;;5088422;28;20434;-13